createdAt,value
2023-04-03T00:00:38.201Z,72.99
2023-04-03T00:01:37.955Z,65.90
2023-04-03T00:02:38.090Z,59.30
2023-04-03T00:03:38.974Z,60.10
2023-04-03T00:04:37.963Z,71.38
2023-04-03T00:05:37.939Z,59.30
2023-04-03T00:06:37.914Z,64.13
2023-04-03T00:07:37.910Z,68.96
2023-04-03T00:08:37.919Z,59.46
2023-04-03T00:09:37.908Z,59.62
2023-04-03T00:10:38.327Z,59.62
2023-04-03T00:11:37.880Z,59.46
2023-04-03T00:12:37.893Z,65.74
2023-04-03T00:13:37.879Z,74.44
2023-04-03T00:14:37.860Z,67.51
2023-04-03T00:15:37.892Z,69.29
2023-04-03T00:16:37.923Z,82.18
2023-04-03T00:17:37.879Z,59.62
2023-04-03T00:18:37.872Z,60.10
2023-04-03T00:19:37.833Z,70.74
2023-04-03T00:20:38.215Z,60.26
2023-04-03T00:21:37.908Z,59.94
2023-04-03T00:22:37.824Z,60.10
2023-04-03T00:23:37.825Z,60.10
2023-04-03T00:24:37.825Z,60.26
2023-04-03T00:25:37.796Z,71.06
2023-04-03T00:26:37.826Z,72.51
2023-04-03T00:27:37.810Z,67.68
2023-04-03T00:28:37.818Z,60.59
2023-04-03T00:29:37.767Z,73.64
2023-04-03T00:30:38.122Z,60.26
2023-04-03T00:32:11.442Z,73.96
2023-04-03T00:32:37.853Z,59.94
2023-04-03T00:33:37.806Z,77.34
2023-04-03T00:34:37.790Z,72.67
2023-04-03T00:35:37.808Z,72.03
2023-04-03T00:37:11.249Z,74.60
2023-04-03T00:37:37.779Z,71.22
2023-04-03T00:38:37.800Z,60.59
2023-04-03T00:40:11.268Z,79.28
2023-04-03T00:40:38.224Z,60.10
2023-04-03T00:41:37.762Z,60.42
2023-04-03T00:42:37.721Z,60.59
2023-04-03T00:44:11.133Z,60.42
2023-04-03T00:44:38.601Z,60.10
2023-04-03T00:45:37.754Z,60.59
2023-04-03T00:46:37.750Z,60.91
2023-04-03T00:47:37.724Z,60.91
2023-04-03T00:48:37.726Z,60.59
2023-04-03T00:49:37.656Z,60.75
2023-04-03T00:50:37.874Z,61.55
2023-04-03T00:51:37.737Z,61.07
2023-04-03T00:52:37.613Z,61.07
2023-04-03T00:53:37.620Z,60.91
2023-04-03T00:54:37.645Z,60.91
2023-04-03T00:55:37.603Z,60.59
2023-04-03T00:56:37.582Z,60.75
2023-04-03T00:57:37.587Z,60.75
2023-04-03T00:58:37.580Z,60.91
2023-04-03T00:59:37.569Z,60.75
2023-04-03T01:00:37.863Z,60.91
2023-04-03T01:01:37.628Z,61.07
2023-04-03T01:02:37.569Z,61.07
2023-04-03T01:03:37.571Z,61.23
2023-04-03T01:04:37.773Z,61.39
2023-04-03T01:05:37.544Z,60.91
2023-04-03T01:06:37.542Z,60.91
2023-04-03T01:07:37.511Z,61.39
2023-04-03T01:08:37.517Z,60.91
2023-04-03T01:09:37.502Z,61.07
2023-04-03T01:10:37.738Z,60.91
2023-04-03T01:11:37.512Z,60.91
2023-04-03T01:12:37.484Z,60.91
2023-04-03T01:13:37.487Z,61.07
2023-04-03T01:14:37.499Z,66.87
2023-04-03T01:15:37.526Z,73.32
2023-04-03T01:16:37.487Z,77.50
2023-04-03T01:17:37.487Z,61.07
2023-04-03T01:18:38.480Z,60.75
2023-04-03T01:19:37.478Z,84.59
2023-04-03T01:20:38.137Z,60.91
2023-04-03T01:21:37.453Z,76.05
2023-04-03T01:22:37.434Z,71.54
2023-04-03T01:23:37.462Z,60.75
2023-04-03T01:24:37.429Z,75.57
2023-04-03T01:25:37.435Z,61.07
2023-04-03T01:26:37.418Z,70.42
2023-04-03T01:27:37.396Z,76.05
2023-04-03T01:28:37.409Z,71.54
2023-04-03T01:29:37.381Z,60.91
2023-04-03T01:30:37.774Z,60.59
2023-04-03T01:31:37.431Z,60.75
2023-04-03T01:32:37.443Z,82.66
2023-04-03T01:33:37.451Z,60.59
2023-04-03T01:34:37.366Z,74.77
2023-04-03T01:35:37.454Z,77.83
2023-04-03T01:36:37.363Z,60.91
2023-04-03T01:37:37.367Z,69.29
2023-04-03T01:38:37.351Z,77.67
2023-04-03T01:39:37.350Z,65.58
2023-04-03T01:40:37.460Z,61.07
2023-04-03T01:41:37.302Z,77.02
2023-04-03T01:42:37.323Z,70.25
2023-04-03T01:43:37.343Z,71.38
2023-04-03T01:44:37.341Z,70.58
2023-04-03T01:45:37.294Z,69.77
2023-04-03T01:46:37.276Z,76.86
2023-04-03T01:47:37.289Z,73.64
2023-04-03T01:48:37.303Z,76.38
2023-04-03T01:49:37.268Z,75.25
2023-04-03T01:50:37.556Z,60.91
2023-04-03T01:51:37.254Z,60.26
2023-04-03T01:52:37.252Z,82.66
2023-04-03T01:53:37.236Z,75.57
2023-04-03T01:54:37.247Z,60.75
2023-04-03T01:55:37.315Z,60.75
2023-04-03T01:56:37.236Z,73.32
2023-04-03T01:57:37.198Z,76.05
2023-04-03T01:58:37.225Z,77.18
2023-04-03T01:59:37.207Z,60.42
2023-04-03T02:00:37.564Z,60.42
2023-04-03T02:01:37.542Z,60.59
2023-04-03T02:02:37.237Z,60.75
2023-04-03T02:03:37.303Z,60.91
2023-04-03T02:04:37.213Z,60.75
2023-04-03T02:05:37.187Z,72.67
2023-04-03T02:06:37.144Z,73.64
2023-04-03T02:07:37.187Z,76.86
2023-04-03T02:08:37.155Z,66.55
2023-04-03T02:09:37.170Z,63.16
2023-04-03T02:10:37.475Z,60.75
2023-04-03T02:11:37.130Z,65.74
2023-04-03T02:12:37.132Z,82.18
2023-04-03T02:13:37.212Z,71.22
2023-04-03T02:14:37.095Z,62.04
2023-04-03T02:15:37.157Z,72.35
2023-04-03T02:16:37.164Z,75.09
2023-04-03T02:17:37.131Z,61.87
2023-04-03T02:18:37.093Z,76.38
2023-04-03T02:19:37.195Z,76.38
2023-04-03T02:20:37.237Z,73.96
2023-04-03T02:21:37.055Z,77.50
2023-04-03T02:22:37.076Z,79.76
2023-04-03T02:23:37.166Z,85.88
2023-04-03T02:24:37.074Z,76.38
2023-04-03T02:25:38.710Z,72.19
2023-04-03T02:26:38.017Z,60.59
2023-04-03T02:27:37.042Z,60.75
2023-04-03T02:28:37.038Z,72.51
2023-04-03T02:29:36.997Z,76.22
2023-04-03T02:30:37.265Z,72.19
2023-04-03T02:31:37.050Z,69.13
2023-04-03T02:32:37.085Z,60.59
2023-04-03T02:33:37.036Z,74.28
2023-04-03T02:34:37.033Z,71.06
2023-04-03T02:35:37.066Z,75.89
2023-04-03T02:36:36.993Z,75.89
2023-04-03T02:37:37.046Z,60.91
2023-04-03T02:38:37.113Z,72.51
2023-04-03T02:39:37.038Z,69.77
2023-04-03T02:40:37.025Z,61.07
2023-04-03T02:41:36.965Z,81.86
2023-04-03T02:42:36.934Z,68.48
2023-04-03T02:43:36.919Z,60.59
2023-04-03T02:44:36.941Z,74.28
2023-04-03T02:45:36.900Z,69.61
2023-04-03T02:46:36.958Z,76.05
2023-04-03T02:47:36.965Z,60.75
2023-04-03T02:48:36.898Z,76.05
2023-04-03T02:49:36.898Z,74.93
2023-04-03T02:50:37.004Z,79.12
2023-04-03T02:51:36.905Z,75.89
2023-04-03T02:52:36.856Z,76.86
2023-04-03T02:53:36.848Z,70.58
2023-04-03T02:54:36.887Z,71.87
2023-04-03T02:55:36.842Z,73.64
2023-04-03T02:56:36.836Z,72.51
2023-04-03T02:57:36.873Z,77.67
2023-04-03T02:58:36.830Z,77.50
2023-04-03T02:59:36.894Z,73.15
2023-04-03T03:00:37.033Z,71.06
2023-04-03T03:01:36.879Z,76.70
2023-04-03T03:02:36.849Z,78.79
2023-04-03T03:03:36.821Z,75.41
2023-04-03T03:04:36.849Z,76.22
2023-04-03T03:05:36.782Z,72.19
2023-04-03T03:06:36.803Z,62.04
2023-04-03T03:07:36.799Z,80.89
2023-04-03T03:08:36.769Z,87.01
2023-04-03T03:09:36.762Z,77.34
2023-04-03T03:10:36.986Z,78.79
2023-04-03T03:11:36.767Z,75.25
2023-04-03T03:12:36.779Z,77.99
2023-04-03T03:13:36.742Z,77.34
2023-04-03T03:14:36.723Z,76.70
2023-04-03T03:15:36.753Z,79.28
2023-04-03T03:16:36.729Z,79.60
2023-04-03T03:17:36.793Z,70.09
2023-04-03T03:18:36.693Z,77.83
2023-04-03T03:19:36.708Z,72.03
2023-04-03T03:20:36.844Z,74.12
2023-04-03T03:21:36.730Z,87.50
2023-04-03T03:22:36.698Z,74.44
2023-04-03T03:23:36.700Z,73.96
2023-04-03T03:24:36.671Z,76.05
2023-04-03T03:25:36.826Z,76.70
2023-04-03T03:26:36.999Z,83.14
2023-04-03T03:27:36.658Z,74.44
2023-04-03T03:28:36.625Z,72.67
2023-04-03T03:29:36.661Z,75.41
2023-04-03T03:30:36.690Z,76.70
2023-04-03T03:31:37.798Z,78.31
2023-04-03T03:32:36.614Z,81.69
2023-04-03T03:33:37.815Z,74.28
2023-04-03T03:34:36.619Z,77.34
2023-04-03T03:35:36.861Z,77.99
2023-04-03T03:36:36.622Z,75.89
2023-04-03T03:37:36.598Z,73.80
2023-04-03T03:38:36.640Z,81.37
2023-04-03T03:39:37.739Z,75.09
2023-04-03T03:40:36.587Z,80.08
2023-04-03T03:41:36.594Z,74.28
2023-04-03T03:42:36.573Z,81.05
2023-04-03T03:43:36.534Z,80.24
2023-04-03T03:44:36.584Z,76.86
2023-04-03T03:45:36.732Z,78.79
2023-04-03T03:46:36.576Z,78.31
2023-04-03T03:47:36.539Z,78.79
2023-04-03T03:48:36.526Z,78.63
2023-04-03T03:49:36.578Z,74.28
2023-04-03T03:50:36.517Z,76.86
2023-04-03T03:51:36.482Z,76.22
2023-04-03T03:52:36.518Z,78.15
2023-04-03T03:53:36.471Z,77.34
2023-04-03T03:54:36.483Z,76.86
2023-04-03T03:55:36.539Z,77.83
2023-04-03T03:56:36.533Z,77.34
2023-04-03T03:57:36.459Z,77.34
2023-04-03T03:58:36.448Z,74.77
2023-04-03T03:59:36.478Z,79.92
2023-04-03T04:00:36.449Z,84.11
2023-04-03T04:01:37.437Z,72.83
2023-04-03T04:02:36.690Z,82.18
2023-04-03T04:03:36.517Z,83.95
2023-04-03T04:04:36.455Z,82.66
2023-04-03T04:05:36.732Z,79.92
2023-04-03T04:06:36.406Z,78.31
2023-04-03T04:07:36.421Z,78.63
2023-04-03T04:08:36.391Z,78.96
2023-04-03T04:09:36.398Z,74.12
2023-04-03T04:10:36.392Z,85.08
2023-04-03T04:11:36.381Z,83.31
2023-04-03T04:12:36.380Z,75.73
2023-04-03T04:13:36.420Z,82.66
2023-04-03T04:14:36.354Z,77.18
2023-04-03T04:15:36.683Z,81.21
2023-04-03T04:16:36.402Z,76.22
2023-04-03T04:17:37.367Z,76.70
2023-04-03T04:18:36.329Z,76.38
2023-04-03T04:19:36.356Z,78.31
2023-04-03T04:20:36.334Z,73.64
2023-04-03T04:21:36.335Z,78.79
2023-04-03T04:22:36.310Z,78.79
2023-04-03T04:23:36.323Z,77.83
2023-04-03T04:24:38.435Z,74.77
2023-04-03T04:25:36.534Z,78.79
2023-04-03T04:26:36.278Z,78.63
2023-04-03T04:27:36.288Z,77.18
2023-04-03T04:28:36.286Z,90.72
2023-04-03T04:29:36.249Z,77.83
2023-04-03T04:30:36.279Z,76.05
2023-04-03T04:31:36.265Z,80.89
2023-04-03T04:32:36.276Z,77.83
2023-04-03T04:33:36.269Z,79.60
2023-04-03T04:34:36.227Z,78.31
2023-04-03T04:35:36.567Z,83.47
2023-04-03T04:36:36.369Z,82.50
2023-04-03T04:37:36.221Z,74.28
2023-04-03T04:38:36.250Z,84.92
2023-04-03T04:39:36.230Z,88.14
2023-04-03T04:40:36.217Z,81.05
2023-04-03T04:41:36.240Z,81.21
2023-04-03T04:42:36.162Z,85.72
2023-04-03T04:43:36.180Z,77.34
2023-04-03T04:44:36.177Z,84.43
2023-04-03T04:45:36.471Z,76.38
2023-04-03T04:46:36.212Z,78.96
2023-04-03T04:47:36.185Z,76.70
2023-04-03T04:48:36.164Z,82.66
2023-04-03T04:49:36.135Z,77.67
2023-04-03T04:50:36.161Z,77.67
2023-04-03T04:51:48.365Z,79.12
2023-04-03T04:52:37.240Z,81.86
2023-04-03T04:53:36.137Z,77.83
2023-04-03T04:54:36.116Z,77.34
2023-04-03T04:55:36.271Z,79.28
2023-04-03T04:56:36.099Z,78.47
2023-04-03T04:57:36.129Z,75.57
2023-04-03T04:58:36.097Z,81.86
2023-04-03T04:59:36.128Z,77.02
2023-04-03T05:00:36.102Z,77.99
2023-04-03T05:01:36.112Z,85.40
2023-04-03T05:02:36.125Z,78.31
2023-04-03T05:03:36.092Z,77.50
2023-04-03T05:04:36.105Z,81.86
2023-04-03T05:05:36.335Z,79.60
2023-04-03T05:06:36.146Z,77.67
2023-04-03T05:07:36.027Z,79.92
2023-04-03T05:08:36.019Z,78.79
2023-04-03T05:09:36.009Z,78.47
2023-04-03T05:10:36.098Z,77.50
2023-04-03T05:11:36.032Z,79.12
2023-04-03T05:12:36.007Z,78.15
2023-04-03T05:13:36.031Z,80.08
2023-04-03T05:14:35.992Z,85.88
2023-04-03T05:15:36.217Z,90.23
2023-04-03T05:16:36.003Z,76.86
2023-04-03T05:17:36.001Z,75.41
2023-04-03T05:18:35.964Z,86.69
2023-04-03T05:19:35.950Z,80.08
2023-04-03T05:20:35.972Z,81.21
2023-04-03T05:21:35.920Z,76.86
2023-04-03T05:22:36.058Z,82.34
2023-04-03T05:23:42.532Z,86.53
2023-04-03T05:28:17.623Z,78.96
2023-04-03T05:29:17.567Z,81.86
2023-04-03T05:30:17.571Z,80.89
2023-04-03T05:31:17.624Z,84.76
2023-04-03T05:32:17.650Z,76.38
2023-04-03T05:33:17.580Z,79.92
2023-04-03T05:34:17.538Z,74.93
2023-04-03T05:35:17.605Z,82.34
2023-04-03T05:36:17.558Z,82.50
2023-04-03T05:37:17.585Z,80.08
2023-04-03T05:38:17.596Z,77.18
2023-04-03T05:39:18.494Z,84.11
2023-04-03T05:40:18.721Z,76.22
2023-04-03T05:41:18.505Z,79.60
2023-04-03T05:42:17.494Z,76.86
2023-04-03T05:43:17.550Z,81.86
2023-04-03T05:44:17.507Z,78.79
2023-04-03T05:45:17.556Z,80.08
2023-04-03T05:46:17.518Z,78.15
2023-04-03T05:47:17.530Z,80.57
2023-04-03T05:48:17.553Z,86.37
2023-04-03T05:49:17.486Z,80.24
2023-04-03T05:50:17.519Z,82.66
2023-04-03T05:51:17.461Z,80.57
2023-04-03T05:52:17.449Z,79.44
2023-04-03T05:53:17.436Z,78.47
2023-04-03T05:54:17.488Z,78.63
2023-04-03T05:55:17.455Z,77.18
2023-04-03T05:56:17.409Z,80.73
2023-04-03T05:57:17.457Z,78.47
2023-04-03T05:58:17.409Z,75.25
2023-04-03T05:59:17.388Z,76.86
2023-04-03T06:00:17.417Z,84.43
2023-04-03T06:01:17.386Z,85.24
2023-04-03T06:02:17.398Z,79.92
2023-04-03T06:03:17.484Z,80.89
2023-04-03T06:04:17.556Z,78.79
2023-04-03T06:05:17.376Z,77.83
2023-04-03T06:06:17.379Z,75.73
2023-04-03T06:07:17.369Z,76.22
2023-04-03T06:08:17.344Z,83.14
2023-04-03T06:09:17.371Z,78.63
2023-04-03T06:10:17.310Z,81.69
2023-04-03T06:11:17.364Z,83.63
2023-04-03T06:12:17.304Z,79.92
2023-04-03T06:13:17.308Z,78.15
2023-04-03T06:14:17.335Z,77.34
2023-04-03T06:15:17.296Z,79.12
2023-04-03T06:16:17.304Z,82.02
2023-04-03T06:17:17.507Z,76.86
2023-04-03T06:18:17.278Z,77.83
2023-04-03T06:19:17.326Z,78.47
2023-04-03T06:20:17.260Z,78.79
2023-04-03T06:21:17.519Z,76.22
2023-04-03T06:22:17.274Z,84.27
2023-04-03T06:23:17.251Z,80.73
2023-04-03T06:24:17.302Z,79.92
2023-04-03T06:25:17.282Z,78.79
2023-04-03T06:26:17.271Z,79.12
2023-04-03T06:27:17.238Z,78.31
2023-04-03T06:28:17.202Z,80.24
2023-04-03T06:29:17.223Z,78.63
2023-04-03T06:30:17.896Z,83.47
2023-04-03T06:31:17.338Z,77.34
2023-04-03T06:32:17.202Z,80.89
2023-04-03T06:33:17.226Z,80.89
2023-04-03T06:34:17.260Z,80.57
2023-04-03T06:35:17.190Z,79.44
2023-04-03T06:36:17.190Z,78.63
2023-04-03T06:37:17.185Z,80.24
2023-04-03T06:38:17.159Z,85.72
2023-04-03T06:39:17.148Z,76.38
2023-04-03T06:40:17.364Z,84.76
2023-04-03T06:41:17.972Z,78.79
2023-04-03T06:42:17.118Z,77.83
2023-04-03T06:43:17.185Z,81.86
2023-04-03T06:44:17.147Z,77.18
2023-04-03T06:45:17.139Z,79.60
2023-04-03T06:46:18.159Z,82.50
2023-04-03T06:47:17.140Z,80.41
2023-04-03T06:48:17.108Z,81.37
2023-04-03T06:49:17.082Z,79.44
2023-04-03T06:50:17.106Z,78.96
2023-04-03T06:51:17.123Z,79.92
2023-04-03T06:52:17.090Z,81.86
2023-04-03T06:53:17.043Z,81.86
2023-04-03T06:54:17.095Z,77.67
2023-04-03T06:55:17.065Z,84.43
2023-04-03T06:56:17.061Z,78.79
2023-04-03T06:57:17.136Z,76.22
2023-04-03T06:58:17.047Z,77.83
2023-04-03T06:59:17.038Z,85.24
2023-04-03T07:00:17.056Z,83.79
2023-04-03T07:01:17.152Z,82.34
2023-04-03T07:02:17.032Z,77.02
2023-04-03T07:03:17.020Z,78.79
2023-04-03T07:04:17.025Z,77.67
2023-04-03T07:05:16.985Z,79.28
2023-04-03T07:06:16.984Z,76.22
2023-04-03T07:07:17.009Z,81.37
2023-04-03T07:08:16.984Z,79.76
2023-04-03T07:09:17.004Z,75.89
2023-04-03T07:10:17.008Z,83.79
2023-04-03T07:11:16.943Z,85.72
2023-04-03T07:12:16.969Z,74.93
2023-04-03T07:13:16.965Z,78.47
2023-04-03T07:14:16.956Z,85.08
2023-04-03T07:15:16.977Z,77.67
2023-04-03T07:16:16.995Z,77.34
2023-04-03T07:17:16.914Z,81.05
2023-04-03T07:18:16.896Z,80.89
2023-04-03T07:19:16.929Z,77.83
2023-04-03T07:20:16.914Z,80.41
2023-04-03T07:21:16.909Z,78.79
2023-04-03T07:22:16.896Z,82.34
2023-04-03T07:23:16.898Z,81.21
2023-04-03T07:24:17.002Z,77.18
2023-04-03T07:25:16.867Z,78.15
2023-04-03T07:26:16.877Z,77.83
2023-04-03T07:27:16.918Z,77.83
2023-04-03T07:28:16.847Z,76.54
2023-04-03T07:29:16.852Z,76.86
2023-04-03T07:30:16.837Z,76.22
2023-04-03T07:31:16.921Z,78.15
2023-04-03T07:32:16.886Z,74.28
2023-04-03T07:33:16.811Z,78.15
2023-04-03T07:34:16.826Z,82.50
2023-04-03T07:35:16.859Z,78.63
2023-04-03T07:36:16.842Z,77.83
2023-04-03T07:37:16.824Z,76.70
2023-04-03T07:38:16.799Z,76.05
2023-04-03T07:39:16.793Z,82.98
2023-04-03T07:40:18.102Z,83.95
2023-04-03T07:41:16.732Z,77.50
2023-04-03T07:42:16.808Z,83.14
2023-04-03T07:43:16.769Z,82.82
2023-04-03T07:44:16.783Z,78.47
2023-04-03T07:45:16.761Z,81.21
2023-04-03T07:46:16.787Z,76.70
2023-04-03T07:47:16.809Z,78.31
2023-04-03T07:48:16.720Z,76.86
2023-04-03T07:49:16.716Z,77.67
2023-04-03T07:50:16.735Z,78.31
2023-04-03T07:51:16.727Z,78.79
2023-04-03T07:52:16.723Z,80.24
2023-04-03T07:53:16.792Z,76.22
2023-04-03T07:54:16.696Z,78.79
2023-04-03T07:55:16.726Z,77.34
2023-04-03T07:56:16.711Z,77.67
2023-04-03T07:57:16.687Z,81.86
2023-04-03T07:58:16.650Z,75.41
2023-04-03T07:59:16.688Z,73.32
2023-04-03T08:00:16.724Z,75.73
2023-04-03T08:01:16.782Z,85.88
2023-04-03T08:02:16.708Z,76.70
2023-04-03T08:03:16.774Z,76.38
2023-04-03T08:04:16.760Z,75.41
2023-04-03T08:05:16.640Z,78.79
2023-04-03T08:06:18.573Z,76.38
2023-04-03T08:07:16.642Z,77.18
2023-04-03T08:08:17.709Z,82.98
2023-04-03T08:09:16.624Z,79.28
2023-04-03T08:10:16.629Z,80.73
2023-04-03T08:11:16.565Z,78.31
2023-04-03T08:12:16.609Z,76.05
2023-04-03T08:13:16.568Z,77.18
2023-04-03T08:14:16.633Z,76.05
2023-04-03T08:15:16.585Z,77.02
2023-04-03T08:16:16.584Z,75.73
2023-04-03T08:17:16.546Z,77.18
2023-04-03T08:18:16.547Z,76.38
2023-04-03T08:19:25.352Z,77.83
2023-04-03T08:20:18.498Z,77.34
2023-04-03T08:21:16.520Z,74.77
2023-04-03T08:22:16.484Z,79.28
2023-04-03T08:23:17.263Z,76.38
2023-04-03T08:24:17.478Z,89.91
2023-04-03T08:25:16.495Z,78.31
2023-04-03T08:26:16.457Z,77.83
2023-04-03T08:27:16.498Z,77.50
2023-04-03T08:28:16.497Z,77.83
2023-04-03T08:29:17.514Z,77.50
2023-04-03T08:30:16.440Z,80.89
2023-04-03T08:31:16.541Z,78.15
2023-04-03T08:32:16.433Z,76.54
2023-04-03T08:33:16.459Z,77.02
2023-04-03T08:34:16.458Z,81.53
2023-04-03T08:35:16.429Z,79.28
2023-04-03T08:36:16.492Z,81.86
2023-04-03T08:37:16.461Z,81.37
2023-04-03T08:38:16.398Z,74.77
2023-04-03T08:39:16.432Z,83.14
2023-04-03T08:40:16.389Z,79.12
2023-04-03T08:41:16.389Z,91.52
2023-04-03T08:42:17.385Z,77.18
2023-04-03T08:43:16.377Z,77.50
2023-04-03T08:44:16.357Z,82.18
2023-04-03T08:45:16.368Z,80.89
2023-04-03T08:46:16.465Z,76.05
2023-04-03T08:47:16.363Z,75.89
2023-04-03T08:48:16.432Z,78.79
2023-04-03T08:49:16.392Z,76.22
2023-04-03T08:50:16.320Z,77.67
2023-04-03T08:51:16.421Z,82.18
2023-04-03T08:52:16.321Z,86.21
2023-04-03T08:53:16.323Z,80.41
2023-04-03T08:54:16.316Z,75.73
2023-04-03T08:55:16.304Z,75.09
2023-04-03T08:56:16.986Z,77.18
2023-04-03T08:57:16.329Z,76.05
2023-04-03T08:58:16.295Z,78.15
2023-04-03T08:59:17.262Z,78.31
2023-04-03T09:00:16.311Z,78.79
2023-04-03T09:01:16.308Z,81.86
2023-04-03T09:02:16.233Z,82.02
2023-04-03T09:03:16.304Z,79.76
2023-04-03T09:04:17.083Z,74.60
2023-04-03T09:05:16.242Z,73.96
2023-04-03T09:06:16.283Z,78.63
2023-04-03T09:07:16.300Z,79.12
2023-04-03T09:08:16.225Z,78.79
2023-04-03T09:09:16.199Z,76.70
2023-04-03T09:10:16.182Z,79.28
2023-04-03T09:11:16.156Z,77.18
2023-04-03T09:12:17.194Z,82.02
2023-04-03T09:13:16.175Z,74.93
2023-04-03T09:14:16.181Z,76.70
2023-04-03T09:15:17.946Z,75.73
2023-04-03T09:16:16.234Z,74.44
2023-04-03T09:17:16.227Z,83.47
2023-04-03T09:18:16.177Z,80.24
2023-04-03T09:19:16.191Z,75.41
2023-04-03T09:20:17.181Z,79.28
2023-04-03T09:21:16.183Z,79.12
2023-04-03T09:22:16.122Z,76.05
2023-04-03T09:23:16.209Z,77.67
2023-04-03T09:24:16.130Z,82.82
2023-04-03T09:25:16.112Z,76.54
2023-04-03T09:26:16.175Z,80.89
2023-04-03T09:27:16.141Z,80.73
2023-04-03T09:28:16.077Z,83.95
2023-04-03T09:29:16.149Z,79.92
2023-04-03T09:30:16.099Z,78.15
2023-04-03T09:31:16.202Z,79.92
2023-04-03T09:32:16.095Z,84.76
2023-04-03T09:33:16.068Z,79.76
2023-04-03T09:34:16.073Z,77.50
2023-04-03T09:35:20.569Z,76.54
2023-04-03T09:36:18.052Z,79.44
2023-04-03T09:37:16.026Z,82.34
2023-04-03T09:38:15.998Z,77.50
2023-04-03T09:39:16.074Z,84.92
2023-04-03T09:40:16.036Z,74.93
2023-04-03T09:41:16.012Z,79.28
2023-04-03T09:42:15.980Z,84.59
2023-04-03T09:43:15.967Z,75.57
2023-04-03T09:44:16.002Z,75.57
2023-04-03T09:45:15.943Z,77.18
2023-04-03T09:46:15.986Z,78.47
2023-04-03T09:47:15.999Z,79.92
2023-04-03T09:48:16.785Z,76.70
2023-04-03T09:49:17.027Z,76.38
2023-04-03T09:50:15.923Z,77.83
2023-04-03T09:51:15.907Z,76.05
2023-04-03T09:52:15.905Z,75.57
2023-04-03T09:53:15.923Z,76.38
2023-04-03T09:54:15.946Z,76.86
2023-04-03T09:55:15.991Z,76.22
2023-04-03T09:56:15.910Z,90.07
2023-04-03T09:57:15.917Z,77.34
2023-04-03T09:58:15.912Z,81.21
2023-04-03T09:59:15.945Z,80.89
2023-04-03T10:00:15.919Z,83.14
2023-04-03T10:01:16.020Z,85.72
2023-04-03T10:02:16.534Z,77.67
2023-04-03T10:03:15.829Z,77.83
2023-04-03T10:04:15.955Z,78.79
2023-04-03T10:05:15.905Z,78.31
2023-04-03T10:06:15.837Z,75.25
2023-04-03T10:07:15.830Z,76.54
2023-04-03T10:08:15.828Z,82.34
2023-04-03T10:09:15.838Z,74.77
2023-04-03T10:10:15.935Z,79.92
2023-04-03T10:11:15.900Z,75.09
2023-04-03T10:12:15.853Z,85.24
2023-04-03T10:13:21.130Z,77.18
2023-04-03T10:14:17.806Z,75.41
2023-04-03T10:15:15.767Z,78.15
2023-04-03T10:16:15.784Z,77.18
2023-04-03T10:17:15.747Z,75.73
2023-04-03T10:18:24.450Z,79.44
2023-04-03T10:19:17.768Z,79.92
2023-04-03T10:20:15.764Z,78.15
2023-04-03T10:21:26.768Z,76.86
2023-04-03T10:22:17.709Z,78.31
2023-04-03T10:23:15.756Z,77.50
2023-04-03T10:24:15.753Z,74.93
2023-04-03T10:25:15.697Z,74.28
2023-04-03T10:26:15.697Z,77.50
2023-04-03T10:27:15.773Z,79.12
2023-04-03T10:28:15.713Z,82.66
2023-04-03T10:29:15.664Z,74.93
2023-04-03T10:30:15.784Z,82.66
2023-04-03T10:31:15.760Z,74.93
2023-04-03T10:32:15.651Z,86.04
2023-04-03T10:33:15.649Z,77.34
2023-04-03T10:34:15.634Z,77.83
2023-04-03T10:35:15.648Z,79.12
2023-04-03T10:36:15.633Z,75.41
2023-04-03T10:37:15.626Z,77.02
2023-04-03T10:38:15.612Z,83.95
2023-04-03T10:39:15.647Z,78.31
2023-04-03T10:40:15.762Z,76.38
2023-04-03T10:41:16.476Z,75.89
2023-04-03T10:42:17.894Z,82.18
2023-04-03T10:43:15.686Z,79.12
2023-04-03T10:44:15.687Z,75.41
2023-04-03T10:45:15.583Z,73.15
2023-04-03T10:46:15.650Z,76.05
2023-04-03T10:47:15.552Z,79.44
2023-04-03T10:48:15.612Z,80.24
2023-04-03T10:49:15.560Z,81.69
2023-04-03T10:50:15.655Z,75.41
2023-04-03T10:51:15.578Z,76.70
2023-04-03T10:52:15.542Z,78.79
2023-04-03T10:53:15.539Z,75.41
2023-04-03T10:54:15.514Z,75.89
2023-04-03T10:55:15.539Z,77.67
2023-04-03T10:56:15.562Z,82.34
2023-04-03T10:57:15.537Z,77.34
2023-04-03T10:58:15.695Z,77.18
2023-04-03T10:59:15.659Z,77.34
2023-04-03T11:00:15.490Z,84.92
2023-04-03T11:01:15.505Z,75.09
2023-04-03T11:02:15.556Z,76.86
2023-04-03T11:03:15.491Z,75.73
2023-04-03T11:04:15.480Z,76.22
2023-04-03T11:05:15.462Z,74.93
2023-04-03T11:06:15.429Z,77.99
2023-04-03T11:07:15.482Z,77.83
2023-04-03T11:08:15.419Z,76.70
2023-04-03T11:09:15.468Z,78.15
2023-04-03T11:10:15.921Z,78.31
2023-04-03T11:11:15.429Z,82.50
2023-04-03T11:12:15.433Z,77.67
2023-04-03T11:13:15.407Z,88.14
2023-04-03T11:14:15.397Z,74.28
2023-04-03T11:15:15.466Z,85.72
2023-04-03T11:16:15.424Z,88.30
2023-04-03T11:17:15.480Z,75.73
2023-04-03T11:18:15.379Z,75.41
2023-04-03T11:19:15.377Z,76.38
2023-04-03T11:20:15.370Z,76.86
2023-04-03T11:21:15.337Z,74.12
2023-04-03T11:22:15.360Z,74.28
2023-04-03T11:23:15.338Z,77.34
2023-04-03T11:24:15.332Z,74.77
2023-04-03T11:25:15.326Z,77.18
2023-04-03T11:26:15.310Z,77.83
2023-04-03T11:27:15.288Z,83.63
2023-04-03T11:28:15.283Z,86.04
2023-04-03T11:29:24.874Z,81.69
2023-04-03T11:30:17.266Z,77.34
2023-04-03T11:31:15.384Z,77.67
2023-04-03T11:32:15.258Z,77.83
2023-04-03T11:33:15.244Z,77.18
2023-04-03T11:34:15.296Z,80.89
2023-04-03T11:35:15.265Z,75.73
2023-04-03T11:36:25.020Z,82.66
2023-04-03T11:37:17.246Z,77.18
2023-04-03T11:38:15.229Z,76.86
2023-04-03T11:39:15.220Z,75.73
2023-04-03T11:40:15.302Z,77.02
2023-04-03T11:41:15.201Z,78.31
2023-04-03T11:42:15.233Z,77.34
2023-04-03T11:43:15.226Z,77.34
2023-04-03T11:44:15.209Z,76.38
2023-04-03T11:45:15.193Z,77.18
2023-04-03T11:46:15.212Z,75.57
2023-04-03T11:47:15.262Z,77.18
2023-04-03T11:48:24.481Z,81.37
2023-04-03T11:49:17.147Z,81.37
2023-04-03T11:50:15.203Z,83.63
2023-04-03T11:51:15.194Z,77.18
2023-04-03T11:52:15.196Z,75.41
2023-04-03T11:53:15.213Z,78.63
2023-04-03T11:54:15.226Z,76.38
2023-04-03T11:55:15.118Z,75.09
2023-04-03T11:56:15.146Z,82.18
2023-04-03T11:57:15.144Z,76.70
2023-04-03T11:58:15.117Z,78.15
2023-04-03T11:59:15.100Z,77.83
2023-04-03T12:00:15.094Z,77.18
2023-04-03T12:01:15.091Z,80.89
2023-04-03T12:02:15.160Z,78.63
2023-04-03T12:03:15.388Z,78.63
2023-04-03T12:04:15.284Z,83.95
2023-04-03T12:05:15.072Z,85.72
2023-04-03T12:06:15.031Z,77.34
2023-04-03T12:07:15.050Z,83.95
2023-04-03T12:08:15.048Z,79.44
2023-04-03T12:09:15.025Z,81.86
2023-04-03T12:10:21.400Z,75.89
2023-04-03T12:11:17.002Z,76.86
2023-04-03T12:12:15.032Z,75.09
2023-04-03T12:13:14.994Z,79.12
2023-04-03T12:14:15.003Z,80.08
2023-04-03T12:15:15.074Z,78.63
2023-04-03T12:16:14.972Z,82.34
2023-04-03T12:17:15.174Z,76.38
2023-04-03T12:18:14.972Z,83.63
2023-04-03T12:19:15.059Z,78.31
2023-04-03T12:20:14.964Z,79.92
2023-04-03T12:21:14.987Z,82.18
2023-04-03T12:22:14.998Z,82.66
2023-04-03T12:23:14.912Z,79.92
2023-04-03T12:24:14.948Z,76.54
2023-04-03T12:25:14.931Z,76.38
2023-04-03T12:26:14.933Z,77.18
2023-04-03T12:27:14.911Z,75.89
2023-04-03T12:28:14.889Z,78.47
2023-04-03T12:29:14.908Z,74.28
2023-04-03T12:30:14.894Z,79.92
2023-04-03T12:31:15.953Z,77.18
2023-04-03T12:32:14.917Z,74.93
2023-04-03T12:33:14.869Z,83.31
2023-04-03T12:34:14.907Z,76.86
2023-04-03T12:35:14.943Z,78.15
2023-04-03T12:36:14.929Z,78.31
2023-04-03T12:37:14.866Z,77.34
2023-04-03T12:38:14.858Z,74.77
2023-04-03T12:39:14.864Z,77.34
2023-04-03T12:40:14.840Z,79.44
2023-04-03T12:41:14.847Z,75.41
2023-04-03T12:42:14.829Z,83.79
2023-04-03T12:43:14.973Z,78.63
2023-04-03T12:44:16.442Z,77.67
2023-04-03T12:45:14.804Z,77.67
2023-04-03T12:46:14.870Z,77.34
2023-04-03T12:47:14.895Z,77.50
2023-04-03T12:48:14.794Z,77.67
2023-04-03T12:49:14.766Z,82.02
2023-04-03T12:50:14.758Z,79.44
2023-04-03T12:51:14.847Z,77.18
2023-04-03T12:52:14.722Z,75.73
2023-04-03T12:53:14.774Z,75.41
2023-04-03T12:54:14.749Z,79.92
2023-04-03T12:55:14.758Z,76.86
2023-04-03T12:56:14.712Z,77.18